sensor_id;sensor_type;location;lat;lon;timestamp;pressure;altitude;pressure_sealevel;temperature;humidity
71105;BME280;58760;48.716;8.962;2022-07-23T00:00:48;96486.59;;;22.85;56.64
71105;BME280;58760;48.716;8.962;2022-07-23T00:03:14;96481.69;;;22.82;58.09
71105;BME280;58760;48.716;8.962;2022-07-23T00:05:39;96492.38;;;22.72;58.39
71105;BME280;58760;48.716;8.962;2022-07-23T00:08:05;96483.56;;;22.82;57.33
71105;BME280;58760;48.716;8.962;2022-07-23T00:10:31;96482.84;;;22.70;58.05
71105;BME280;58760;48.716;8.962;2022-07-23T00:12:56;96480.88;;;22.65;58.56
71105;BME280;58760;48.716;8.962;2022-07-23T00:15:22;96495.81;;;22.68;58.89
71105;BME280;58760;48.716;8.962;2022-07-23T00:17:47;96483.34;;;22.50;59.38
71105;BME280;58760;48.716;8.962;2022-07-23T00:20:13;96479.56;;;22.51;59.95
71105;BME280;58760;48.716;8.962;2022-07-23T00:22:52;96481.06;;;22.42;60.61
71105;BME280;58760;48.716;8.962;2022-07-23T00:25:18;96475.34;;;22.38;60.90
71105;BME280;58760;48.716;8.962;2022-07-23T00:27:44;96469.06;;;22.33;60.77
71105;BME280;58760;48.716;8.962;2022-07-23T00:30:09;96478.47;;;22.30;63.21
71105;BME280;58760;48.716;8.962;2022-07-23T00:32:55;96471.59;;;22.23;64.10
71105;BME280;58760;48.716;8.962;2022-07-23T00:35:25;96480.44;;;22.18;64.21
71105;BME280;58760;48.716;8.962;2022-07-23T00:37:51;96443.91;;;22.16;64.21
71105;BME280;58760;48.716;8.962;2022-07-23T00:40:17;96452.91;;;22.05;64.41
71105;BME280;58760;48.716;8.962;2022-07-23T00:42:42;96442.91;;;21.88;65.33
71105;BME280;58760;48.716;8.962;2022-07-23T00:45:08;96431.94;;;21.78;66.07
71105;BME280;58760;48.716;8.962;2022-07-23T00:47:35;96434.56;;;21.73;64.95
71105;BME280;58760;48.716;8.962;2022-07-23T00:50:01;96453.88;;;21.65;65.01
71105;BME280;58760;48.716;8.962;2022-07-23T00:52:26;96456.97;;;21.57;65.04
71105;BME280;58760;48.716;8.962;2022-07-23T00:54:51;96464.50;;;21.55;64.68
71105;BME280;58760;48.716;8.962;2022-07-23T00:57:17;96467.59;;;21.47;64.39
71105;BME280;58760;48.716;8.962;2022-07-23T00:59:43;96469.91;;;21.55;64.55
71105;BME280;58760;48.716;8.962;2022-07-23T01:02:08;96479.44;;;21.74;63.91
71105;BME280;58760;48.716;8.962;2022-07-23T01:04:33;96467.06;;;21.62;65.02
71105;BME280;58760;48.716;8.962;2022-07-23T01:06:59;96421.19;;;21.50;66.04
71105;BME280;58760;48.716;8.962;2022-07-23T01:09:25;96445.66;;;21.44;67.62
71105;BME280;58760;48.716;8.962;2022-07-23T01:11:51;96437.97;;;21.35;67.14
71105;BME280;58760;48.716;8.962;2022-07-23T01:14:17;96432.16;;;21.44;68.67
71105;BME280;58760;48.716;8.962;2022-07-23T01:16:44;96433.38;;;21.36;67.61
71105;BME280;58760;48.716;8.962;2022-07-23T01:19:10;96439.50;;;21.31;67.26
71105;BME280;58760;48.716;8.962;2022-07-23T01:21:36;96436.94;;;21.25;66.21
71105;BME280;58760;48.716;8.962;2022-07-23T01:24:02;96418.63;;;21.27;66.19
71105;BME280;58760;48.716;8.962;2022-07-23T01:26:27;96400.06;;;21.30;65.49
71105;BME280;58760;48.716;8.962;2022-07-23T01:28:53;96390.50;;;21.23;66.26
71105;BME280;58760;48.716;8.962;2022-07-23T01:31:18;96408.31;;;21.24;69.35
71105;BME280;58760;48.716;8.962;2022-07-23T01:33:44;96430.91;;;21.34;67.81
71105;BME280;58760;48.716;8.962;2022-07-23T01:36:09;96387.94;;;21.16;69.49
71105;BME280;58760;48.716;8.962;2022-07-23T01:38:35;96385.03;;;21.06;70.39
71105;BME280;58760;48.716;8.962;2022-07-23T01:41:00;96367.31;;;21.10;72.33
71105;BME280;58760;48.716;8.962;2022-07-23T01:43:25;96377.47;;;20.92;74.06
71105;BME280;58760;48.716;8.962;2022-07-23T01:45:51;96405.91;;;21.11;70.59
71105;BME280;58760;48.716;8.962;2022-07-23T01:48:16;96423.03;;;21.16;70.67
71105;BME280;58760;48.716;8.962;2022-07-23T01:50:41;96423.09;;;20.93;70.67
71105;BME280;58760;48.716;8.962;2022-07-23T01:53:07;96415.31;;;20.68;71.27
71105;BME280;58760;48.716;8.962;2022-07-23T01:55:32;96413.41;;;20.80;71.36
71105;BME280;58760;48.716;8.962;2022-07-23T01:57:58;96408.66;;;20.87;69.59
71105;BME280;58760;48.716;8.962;2022-07-23T02:00:23;96410.38;;;20.65;72.10
71105;BME280;58760;48.716;8.962;2022-07-23T02:02:48;96413.47;;;20.57;71.07
71105;BME280;58760;48.716;8.962;2022-07-23T02:05:14;96423.19;;;20.58;69.70
71105;BME280;58760;48.716;8.962;2022-07-23T02:07:39;96425.88;;;20.58;70.61
71105;BME280;58760;48.716;8.962;2022-07-23T02:10:05;96430.31;;;20.76;70.05
71105;BME280;58760;48.716;8.962;2022-07-23T02:12:31;96440.47;;;20.85;68.80
71105;BME280;58760;48.716;8.962;2022-07-23T02:14:56;96443.00;;;20.52;69.78
71105;BME280;58760;48.716;8.962;2022-07-23T02:17:21;96445.84;;;20.46;70.48
71105;BME280;58760;48.716;8.962;2022-07-23T02:19:47;96442.22;;;20.40;70.89
71105;BME280;58760;48.716;8.962;2022-07-23T02:22:12;96449.91;;;20.60;69.96
71105;BME280;58760;48.716;8.962;2022-07-23T02:24:37;96458.28;;;20.35;70.79
71105;BME280;58760;48.716;8.962;2022-07-23T02:27:03;96469.75;;;20.42;70.69
71105;BME280;58760;48.716;8.962;2022-07-23T02:29:28;96478.69;;;20.31;70.76
71105;BME280;58760;48.716;8.962;2022-07-23T02:31:53;96503.75;;;20.31;71.02
71105;BME280;58760;48.716;8.962;2022-07-23T02:34:19;96511.22;;;20.18;71.73
71105;BME280;58760;48.716;8.962;2022-07-23T02:36:44;96509.22;;;20.13;71.76
71105;BME280;58760;48.716;8.962;2022-07-23T02:39:10;96514.00;;;20.00;73.01
71105;BME280;58760;48.716;8.962;2022-07-23T02:41:35;96518.69;;;20.04;72.52
71105;BME280;58760;48.716;8.962;2022-07-23T02:44:00;96527.25;;;20.01;73.02
71105;BME280;58760;48.716;8.962;2022-07-23T02:46:26;96532.06;;;19.99;73.43
71105;BME280;58760;48.716;8.962;2022-07-23T02:48:51;96524.44;;;19.96;73.33
71105;BME280;58760;48.716;8.962;2022-07-23T02:51:17;96527.34;;;19.95;73.15
71105;BME280;58760;48.716;8.962;2022-07-23T02:53:42;96517.19;;;20.08;71.63
71105;BME280;58760;48.716;8.962;2022-07-23T02:56:08;96519.88;;;20.20;70.48
71105;BME280;58760;48.716;8.962;2022-07-23T02:58:33;96533.88;;;20.40;69.56
71105;BME280;58760;48.716;8.962;2022-07-23T03:00:59;96529.53;;;20.39;69.94
71105;BME280;58760;48.716;8.962;2022-07-23T03:03:24;96533.88;;;20.28;69.69
71105;BME280;58760;48.716;8.962;2022-07-23T03:05:50;96535.97;;;20.26;69.38
71105;BME280;58760;48.716;8.962;2022-07-23T03:08:15;96526.44;;;20.24;69.48
71105;BME280;58760;48.716;8.962;2022-07-23T03:10:40;96541.59;;;20.37;68.64
71105;BME280;58760;48.716;8.962;2022-07-23T03:13:06;96533.78;;;20.35;68.67
71105;BME280;58760;48.716;8.962;2022-07-23T03:15:31;96526.44;;;20.24;69.47
71105;BME280;58760;48.716;8.962;2022-07-23T03:17:56;96531.72;;;20.19;69.83
71105;BME280;58760;48.716;8.962;2022-07-23T03:20:22;96519.41;;;20.23;69.46
71105;BME280;58760;48.716;8.962;2022-07-23T03:22:47;96505.38;;;20.21;69.14
71105;BME280;58760;48.716;8.962;2022-07-23T03:25:13;96498.94;;;20.22;69.20
71105;BME280;58760;48.716;8.962;2022-07-23T03:27:38;96501.97;;;20.25;69.25
71105;BME280;58760;48.716;8.962;2022-07-23T03:30:04;96504.19;;;20.17;69.60
71105;BME280;58760;48.716;8.962;2022-07-23T03:32:29;96513.91;;;20.18;70.32
71105;BME280;58760;48.716;8.962;2022-07-23T03:34:56;96523.91;;;20.41;68.13
71105;BME280;58760;48.716;8.962;2022-07-23T03:37:21;96522.00;;;20.18;69.09
71105;BME280;58760;48.716;8.962;2022-07-23T03:39:47;96521.19;;;20.29;68.28
71105;BME280;58760;48.716;8.962;2022-07-23T03:42:13;96519.53;;;20.16;68.57
71105;BME280;58760;48.716;8.962;2022-07-23T03:44:38;96526.78;;;20.04;70.34
71105;BME280;58760;48.716;8.962;2022-07-23T03:47:04;96521.03;;;20.01;71.61
71105;BME280;58760;48.716;8.962;2022-07-23T03:49:30;96525.31;;;19.78;71.68
71105;BME280;58760;48.716;8.962;2022-07-23T03:51:55;96528.56;;;19.69;73.55
71105;BME280;58760;48.716;8.962;2022-07-23T03:54:21;96527.19;;;19.66;72.78
71105;BME280;58760;48.716;8.962;2022-07-23T03:56:46;96539.72;;;19.72;71.43
71105;BME280;58760;48.716;8.962;2022-07-23T03:59:12;96531.75;;;19.77;71.64
71105;BME280;58760;48.716;8.962;2022-07-23T04:01:37;96539.72;;;19.84;71.15
71105;BME280;58760;48.716;8.962;2022-07-23T04:04:03;96528.97;;;19.84;71.63
71105;BME280;58760;48.716;8.962;2022-07-23T04:06:28;96523.94;;;19.88;71.34
71105;BME280;58760;48.716;8.962;2022-07-23T04:08:54;96534.84;;;19.93;71.25
71105;BME280;58760;48.716;8.962;2022-07-23T04:11:19;96525.59;;;20.00;71.15
71105;BME280;58760;48.716;8.962;2022-07-23T04:13:45;96525.03;;;20.10;70.83
71105;BME280;58760;48.716;8.962;2022-07-23T04:16:10;96532.53;;;20.19;69.97
71105;BME280;58760;48.716;8.962;2022-07-23T04:18:35;96530.19;;;20.11;70.40
71105;BME280;58760;48.716;8.962;2022-07-23T04:21:01;96537.75;;;20.44;70.37
71105;BME280;58760;48.716;8.962;2022-07-23T04:23:26;96537.34;;;20.17;71.09
71105;BME280;58760;48.716;8.962;2022-07-23T04:25:52;96537.19;;;20.01;72.69
71105;BME280;58760;48.716;8.962;2022-07-23T04:28:17;96540.59;;;19.96;72.33
71105;BME280;58760;48.716;8.962;2022-07-23T04:30:42;96534.38;;;19.96;71.76
71105;BME280;58760;48.716;8.962;2022-07-23T04:33:08;96535.31;;;19.90;72.47
71105;BME280;58760;48.716;8.962;2022-07-23T04:35:34;96539.06;;;19.89;72.20
71105;BME280;58760;48.716;8.962;2022-07-23T04:37:59;96547.84;;;19.96;72.64
71105;BME280;58760;48.716;8.962;2022-07-23T04:40:25;96546.09;;;19.90;73.20
71105;BME280;58760;48.716;8.962;2022-07-23T04:42:51;96555.56;;;19.92;73.36
71105;BME280;58760;48.716;8.962;2022-07-23T04:45:16;96549.00;;;20.00;72.92
71105;BME280;58760;48.716;8.962;2022-07-23T04:47:42;96540.59;;;19.96;73.84
71105;BME280;58760;48.716;8.962;2022-07-23T04:50:07;96542.47;;;19.96;73.03
71105;BME280;58760;48.716;8.962;2022-07-23T04:52:32;96543.88;;;19.98;73.34
71105;BME280;58760;48.716;8.962;2022-07-23T04:54:58;96546.13;;;20.13;72.37
71105;BME280;58760;48.716;8.962;2022-07-23T04:57:23;96541.13;;;20.28;71.60
71105;BME280;58760;48.716;8.962;2022-07-23T04:59:49;96522.56;;;20.20;71.99
71105;BME280;58760;48.716;8.962;2022-07-23T05:02:14;96520.59;;;20.15;72.55
71105;BME280;58760;48.716;8.962;2022-07-23T05:04:40;96534.44;;;20.19;73.51
71105;BME280;58760;48.716;8.962;2022-07-23T05:07:05;96536.00;;;20.61;70.79
71105;BME280;58760;48.716;8.962;2022-07-23T05:09:30;96549.13;;;20.58;70.27
71105;BME280;58760;48.716;8.962;2022-07-23T05:11:56;96538.47;;;20.51;70.64
71105;BME280;58760;48.716;8.962;2022-07-23T05:14:21;96542.06;;;20.45;71.62
71105;BME280;58760;48.716;8.962;2022-07-23T05:16:46;96543.13;;;20.44;71.18
71105;BME280;58760;48.716;8.962;2022-07-23T05:19:12;96547.59;;;20.73;69.53
71105;BME280;58760;48.716;8.962;2022-07-23T05:21:37;96545.59;;;20.69;69.57
71105;BME280;58760;48.716;8.962;2022-07-23T05:24:03;96548.06;;;20.70;70.02
71105;BME280;58760;48.716;8.962;2022-07-23T05:26:28;96546.84;;;20.78;70.77
71105;BME280;58760;48.716;8.962;2022-07-23T05:28:54;96558.25;;;20.80;70.70
71105;BME280;58760;48.716;8.962;2022-07-23T05:31:19;96556.47;;;20.85;70.72
71105;BME280;58760;48.716;8.962;2022-07-23T05:33:45;96560.34;;;20.90;68.97
71105;BME280;58760;48.716;8.962;2022-07-23T05:36:10;96556.66;;;21.07;68.18
71105;BME280;58760;48.716;8.962;2022-07-23T05:38:35;96560.19;;;21.08;69.00
71105;BME280;58760;48.716;8.962;2022-07-23T05:41:01;96561.00;;;21.08;68.64
71105;BME280;58760;48.716;8.962;2022-07-23T05:43:27;96559.25;;;21.14;68.43
71105;BME280;58760;48.716;8.962;2022-07-23T05:45:52;96569.84;;;21.15;68.10
71105;BME280;58760;48.716;8.962;2022-07-23T05:48:18;96565.09;;;21.34;67.47
71105;BME280;58760;48.716;8.962;2022-07-23T05:50:44;96572.69;;;21.37;67.10
71105;BME280;58760;48.716;8.962;2022-07-23T05:53:09;96576.44;;;21.48;67.15
71105;BME280;58760;48.716;8.962;2022-07-23T05:55:34;96568.09;;;21.49;66.75
71105;BME280;58760;48.716;8.962;2022-07-23T05:58:00;96567.34;;;21.65;64.57
71105;BME280;58760;48.716;8.962;2022-07-23T06:00:26;96555.16;;;21.79;63.33
71105;BME280;58760;48.716;8.962;2022-07-23T06:02:51;96553.63;;;21.83;62.58
71105;BME280;58760;48.716;8.962;2022-07-23T06:05:17;96548.78;;;21.85;62.93
71105;BME280;58760;48.716;8.962;2022-07-23T06:07:42;96544.03;;;22.04;62.25
71105;BME280;58760;48.716;8.962;2022-07-23T06:10:08;96529.56;;;21.99;63.42
71105;BME280;58760;48.716;8.962;2022-07-23T06:12:34;96522.34;;;21.87;64.02
71105;BME280;58760;48.716;8.962;2022-07-23T06:14:59;96540.06;;;21.95;62.97
71105;BME280;58760;48.716;8.962;2022-07-23T06:17:24;96546.47;;;22.06;62.20
71105;BME280;58760;48.716;8.962;2022-07-23T06:19:50;96556.97;;;22.19;60.92
71105;BME280;58760;48.716;8.962;2022-07-23T06:22:15;96553.84;;;22.10;62.12
71105;BME280;58760;48.716;8.962;2022-07-23T06:24:40;96561.16;;;22.26;61.82
71105;BME280;58760;48.716;8.962;2022-07-23T06:27:06;96560.31;;;22.42;60.94
71105;BME280;58760;48.716;8.962;2022-07-23T06:29:31;96575.97;;;22.57;60.47
71105;BME280;58760;48.716;8.962;2022-07-23T06:31:56;96575.66;;;22.70;59.81
71105;BME280;58760;48.716;8.962;2022-07-23T06:34:22;96582.03;;;22.81;59.86
71105;BME280;58760;48.716;8.962;2022-07-23T06:36:47;96585.63;;;22.86;59.35
71105;BME280;58760;48.716;8.962;2022-07-23T06:39:13;96591.81;;;22.82;60.66
71105;BME280;58760;48.716;8.962;2022-07-23T06:41:38;96588.63;;;22.68;60.17
71105;BME280;58760;48.716;8.962;2022-07-23T06:44:03;96596.53;;;22.58;60.07
71105;BME280;58760;48.716;8.962;2022-07-23T06:46:29;96598.19;;;22.59;59.05
71105;BME280;58760;48.716;8.962;2022-07-23T06:48:54;96599.59;;;22.62;58.61
71105;BME280;58760;48.716;8.962;2022-07-23T06:51:20;96611.22;;;22.62;58.85
71105;BME280;58760;48.716;8.962;2022-07-23T06:53:46;96610.97;;;22.64;58.97
71105;BME280;58760;48.716;8.962;2022-07-23T06:56:11;96620.06;;;22.58;59.43
71105;BME280;58760;48.716;8.962;2022-07-23T06:58:37;96621.38;;;22.55;59.58
71105;BME280;58760;48.716;8.962;2022-07-23T07:01:02;96618.59;;;22.50;59.32
71105;BME280;58760;48.716;8.962;2022-07-23T07:03:27;96616.38;;;22.47;58.92
71105;BME280;58760;48.716;8.962;2022-07-23T07:05:53;96593.34;;;22.28;60.02
71105;BME280;58760;48.716;8.962;2022-07-23T07:08:18;96587.69;;;22.29;60.43
71105;BME280;58760;48.716;8.962;2022-07-23T07:10:43;96577.13;;;22.28;60.74
71105;BME280;58760;48.716;8.962;2022-07-23T07:13:09;96590.56;;;22.39;61.84
71105;BME280;58760;48.716;8.962;2022-07-23T07:15:34;96608.09;;;22.37;61.66
71105;BME280;58760;48.716;8.962;2022-07-23T07:18:00;96604.31;;;22.38;61.69
71105;BME280;58760;48.716;8.962;2022-07-23T07:20:25;96602.59;;;22.32;61.81
71105;BME280;58760;48.716;8.962;2022-07-23T07:22:50;96600.16;;;22.30;61.32
71105;BME280;58760;48.716;8.962;2022-07-23T07:25:16;96607.13;;;22.43;60.64
71105;BME280;58760;48.716;8.962;2022-07-23T07:27:41;96606.16;;;22.49;60.39
71105;BME280;58760;48.716;8.962;2022-07-23T07:30:10;96619.19;;;22.52;59.68
71105;BME280;58760;48.716;8.962;2022-07-23T07:32:35;96619.91;;;22.64;59.63
71105;BME280;58760;48.716;8.962;2022-07-23T07:35:03;96628.38;;;22.84;60.83
71105;BME280;58760;48.716;8.962;2022-07-23T07:37:29;96635.56;;;22.96;59.63
71105;BME280;58760;48.716;8.962;2022-07-23T07:39:54;96641.25;;;22.94;58.28
71105;BME280;58760;48.716;8.962;2022-07-23T07:42:20;96648.53;;;22.77;58.01
71105;BME280;58760;48.716;8.962;2022-07-23T07:44:46;96650.44;;;22.76;57.42
71105;BME280;58760;48.716;8.962;2022-07-23T07:47:11;96656.81;;;22.70;57.19
71105;BME280;58760;48.716;8.962;2022-07-23T07:49:36;96664.38;;;22.68;56.91
71105;BME280;58760;48.716;8.962;2022-07-23T07:52:02;96670.25;;;22.65;58.05
71105;BME280;58760;48.716;8.962;2022-07-23T07:54:27;96670.78;;;22.79;57.45
71105;BME280;58760;48.716;8.962;2022-07-23T07:56:52;96677.00;;;22.79;58.05
71105;BME280;58760;48.716;8.962;2022-07-23T07:59:18;96677.50;;;22.76;58.47
71105;BME280;58760;48.716;8.962;2022-07-23T08:01:43;96672.06;;;22.76;58.15
71105;BME280;58760;48.716;8.962;2022-07-23T08:04:08;96674.38;;;22.68;58.88
71105;BME280;58760;48.716;8.962;2022-07-23T08:06:34;96668.97;;;22.68;59.28
71105;BME280;58760;48.716;8.962;2022-07-23T08:08:59;96669.66;;;22.63;58.70
71105;BME280;58760;48.716;8.962;2022-07-23T08:11:24;96668.28;;;22.61;59.10
71105;BME280;58760;48.716;8.962;2022-07-23T08:13:50;96666.50;;;22.66;57.90
71105;BME280;58760;48.716;8.962;2022-07-23T08:16:15;96660.94;;;22.73;57.26
71105;BME280;58760;48.716;8.962;2022-07-23T08:18:40;96662.75;;;22.84;57.81
71105;BME280;58760;48.716;8.962;2022-07-23T08:21:06;96652.78;;;23.06;56.43
71105;BME280;58760;48.716;8.962;2022-07-23T08:23:31;96652.56;;;23.08;56.46
71105;BME280;58760;48.716;8.962;2022-07-23T08:25:57;96663.69;;;23.28;57.30
71105;BME280;58760;48.716;8.962;2022-07-23T08:28:23;96655.94;;;23.53;57.88
71105;BME280;58760;48.716;8.962;2022-07-23T08:30:48;96653.22;;;23.53;56.67
71105;BME280;58760;48.716;8.962;2022-07-23T08:33:15;96666.94;;;23.68;57.90
71105;BME280;58760;48.716;8.962;2022-07-23T08:35:48;96656.19;;;23.73;57.42
71105;BME280;58760;48.716;8.962;2022-07-23T08:38:17;96653.47;;;23.73;55.59
71105;BME280;58760;48.716;8.962;2022-07-23T08:40:44;96658.06;;;23.73;55.82
71105;BME280;58760;48.716;8.962;2022-07-23T08:43:12;96660.13;;;23.87;55.80
71105;BME280;58760;48.716;8.962;2022-07-23T08:45:41;96654.91;;;23.81;55.71
71105;BME280;58760;48.716;8.962;2022-07-23T08:48:20;96661.41;;;23.80;56.07
71105;BME280;58760;48.716;8.962;2022-07-23T08:50:52;96661.41;;;23.80;54.51
71105;BME280;58760;48.716;8.962;2022-07-23T08:53:19;96659.19;;;23.77;52.69
71105;BME280;58760;48.716;8.962;2022-07-23T08:55:50;96664.88;;;23.75;54.39
71105;BME280;58760;48.716;8.962;2022-07-23T08:58:16;96662.97;;;23.76;54.12
71105;BME280;58760;48.716;8.962;2022-07-23T09:00:42;96663.97;;;23.91;54.68
71105;BME280;58760;48.716;8.962;2022-07-23T09:03:12;96661.75;;;24.10;53.42
71105;BME280;58760;48.716;8.962;2022-07-23T09:05:39;96661.88;;;24.20;52.45
71105;BME280;58760;48.716;8.962;2022-07-23T09:10:52;96656.47;;;24.47;52.06
71105;BME280;58760;48.716;8.962;2022-07-23T09:16:19;96659.97;;;25.06;50.67
71105;BME280;58760;48.716;8.962;2022-07-23T09:18:49;96660.38;;;25.30;50.05
71105;BME280;58760;48.716;8.962;2022-07-23T09:21:31;96654.03;;;25.56;46.51
71105;BME280;58760;48.716;8.962;2022-07-23T09:24:05;96646.16;;;25.60;45.85
71105;BME280;58760;48.716;8.962;2022-07-23T09:26:40;96643.53;;;25.28;46.99
71105;BME280;58760;48.716;8.962;2022-07-23T09:29:09;96645.41;;;25.22;46.80
71105;BME280;58760;48.716;8.962;2022-07-23T09:31:51;96640.16;;;25.11;48.18
71105;BME280;58760;48.716;8.962;2022-07-23T09:34:19;96642.09;;;25.15;47.69
71105;BME280;58760;48.716;8.962;2022-07-23T09:36:45;96635.91;;;25.25;47.72
71105;BME280;58760;48.716;8.962;2022-07-23T09:39:12;96632.88;;;25.21;47.99
71105;BME280;58760;48.716;8.962;2022-07-23T09:41:43;96636.72;;;25.25;47.86
71105;BME280;58760;48.716;8.962;2022-07-23T09:44:18;96637.13;;;25.49;47.51
71105;BME280;58760;48.716;8.962;2022-07-23T09:46:46;96637.03;;;25.34;48.84
71105;BME280;58760;48.716;8.962;2022-07-23T09:49:22;96640.41;;;25.51;47.34
71105;BME280;58760;48.716;8.962;2022-07-23T09:51:51;96636.09;;;25.60;46.63
71105;BME280;58760;48.716;8.962;2022-07-23T09:56:51;96632.81;;;25.53;47.26
71105;BME280;58760;48.716;8.962;2022-07-23T09:59:17;96636.97;;;25.71;47.00
71105;BME280;58760;48.716;8.962;2022-07-23T10:01:44;96627.50;;;25.83;47.69
71105;BME280;58760;48.716;8.962;2022-07-23T10:04:11;96633.56;;;26.00;45.83
71105;BME280;58760;48.716;8.962;2022-07-23T10:06:39;96638.19;;;26.10;47.06
71105;BME280;58760;48.716;8.962;2022-07-23T10:09:05;96639.03;;;26.21;47.63
71105;BME280;58760;48.716;8.962;2022-07-23T10:11:31;96640.16;;;26.20;47.03
71105;BME280;58760;48.716;8.962;2022-07-23T10:13:58;96635.81;;;26.34;45.79
71105;BME280;58760;48.716;8.962;2022-07-23T10:16:26;96633.66;;;26.61;45.61
71105;BME280;58760;48.716;8.962;2022-07-23T10:18:52;96643.19;;;26.53;44.01
71105;BME280;58760;48.716;8.962;2022-07-23T10:21:41;96635.81;;;26.29;44.57
71105;BME280;58760;48.716;8.962;2022-07-23T10:24:30;96638.78;;;26.17;44.24
71105;BME280;58760;48.716;8.962;2022-07-23T10:30:02;96643.91;;;26.09;44.06
71105;BME280;58760;48.716;8.962;2022-07-23T10:32:49;96636.31;;;26.11;45.26
71105;BME280;58760;48.716;8.962;2022-07-23T10:35:36;96645.53;;;26.15;44.25
71105;BME280;58760;48.716;8.962;2022-07-23T10:38:13;96640.97;;;26.25;44.16
71105;BME280;58760;48.716;8.962;2022-07-23T10:41:01;96638.28;;;26.45;43.16
71105;BME280;58760;48.716;8.962;2022-07-23T10:43:28;96637.47;;;26.55;42.79
71105;BME280;58760;48.716;8.962;2022-07-23T10:45:54;96635.31;;;26.62;43.30
71105;BME280;58760;48.716;8.962;2022-07-23T10:48:22;96627.94;;;26.47;43.97
71105;BME280;58760;48.716;8.962;2022-07-23T10:59:04;96616.25;;;26.92;42.21
71105;BME280;58760;48.716;8.962;2022-07-23T11:01:39;96615.19;;;26.98;41.61
71105;BME280;58760;48.716;8.962;2022-07-23T11:04:05;96611.88;;;27.12;41.10
71105;BME280;58760;48.716;8.962;2022-07-23T11:15:00;96630.69;;;27.08;40.41
71105;BME280;58760;48.716;8.962;2022-07-23T11:17:27;96626.59;;;26.95;41.52
71105;BME280;58760;48.716;8.962;2022-07-23T11:22:56;96620.56;;;27.34;40.84
71105;BME280;58760;48.716;8.962;2022-07-23T11:27:48;96628.03;;;27.82;39.77
71105;BME280;58760;48.716;8.962;2022-07-23T11:32:51;96617.66;;;27.84;39.20
71105;BME280;58760;48.716;8.962;2022-07-23T11:35:27;96625.88;;;27.79;39.64
71105;BME280;58760;48.716;8.962;2022-07-23T11:37:54;96627.75;;;27.84;39.96
71105;BME280;58760;48.716;8.962;2022-07-23T11:40:27;96620.06;;;27.91;39.44
71105;BME280;58760;48.716;8.962;2022-07-23T11:42:57;96613.16;;;28.14;39.72
71105;BME280;58760;48.716;8.962;2022-07-23T11:45:25;96615.31;;;28.55;38.45
71105;BME280;58760;48.716;8.962;2022-07-23T11:47:54;96605.72;;;28.63;38.53
71105;BME280;58760;48.716;8.962;2022-07-23T11:50:23;96617.94;;;29.04;38.08
71105;BME280;58760;48.716;8.962;2022-07-23T11:52:50;96613.47;;;29.14;38.10
71105;BME280;58760;48.716;8.962;2022-07-23T11:55:15;96608.72;;;29.29;37.30
71105;BME280;58760;48.716;8.962;2022-07-23T11:57:41;96618.91;;;29.47;36.99
71105;BME280;58760;48.716;8.962;2022-07-23T12:02:37;96597.53;;;29.97;35.16
71105;BME280;58760;48.716;8.962;2022-07-23T12:05:04;96605.34;;;29.85;35.23
71105;BME280;58760;48.716;8.962;2022-07-23T12:07:37;96604.25;;;29.62;36.04
71105;BME280;58760;48.716;8.962;2022-07-23T12:10:40;96595.59;;;29.97;37.43
71105;BME280;58760;48.716;8.962;2022-07-23T12:12:59;96592.03;;;30.34;35.34
71105;BME280;58760;48.716;8.962;2022-07-23T12:15:28;96601.06;;;30.35;35.48
71105;BME280;58760;48.716;8.962;2022-07-23T12:17:56;96592.84;;;30.35;35.52
71105;BME280;58760;48.716;8.962;2022-07-23T12:20:26;96604.31;;;30.18;36.27
71105;BME280;58760;48.716;8.962;2022-07-23T12:22:56;96605.94;;;29.58;37.45
71105;BME280;58760;48.716;8.962;2022-07-23T12:25:24;96600.97;;;29.07;38.29
71105;BME280;58760;48.716;8.962;2022-07-23T12:28:13;96614.38;;;28.75;38.99
71105;BME280;58760;48.716;8.962;2022-07-23T12:30:46;96604.03;;;28.33;40.03
71105;BME280;58760;48.716;8.962;2022-07-23T12:33:13;96606.03;;;28.18;40.42
71105;BME280;58760;48.716;8.962;2022-07-23T12:35:45;96609.53;;;28.62;39.52
71105;BME280;58760;48.716;8.962;2022-07-23T12:38:18;96600.28;;;28.58;39.91
71105;BME280;58760;48.716;8.962;2022-07-23T12:40:49;96603.56;;;28.60;38.95
71105;BME280;58760;48.716;8.962;2022-07-23T12:46:18;96607.34;;;28.64;39.10
71105;BME280;58760;48.716;8.962;2022-07-23T12:53:49;96606.97;;;29.62;37.33
71105;BME280;58760;48.716;8.962;2022-07-23T12:56:49;96611.31;;;30.48;36.66
71105;BME280;58760;48.716;8.962;2022-07-23T12:59:12;96617.84;;;30.84;34.83
71105;BME280;58760;48.716;8.962;2022-07-23T13:01:43;96608.09;;;31.10;33.72
71105;BME280;58760;48.716;8.962;2022-07-23T13:04:23;96609.66;;;31.30;33.39
71105;BME280;58760;48.716;8.962;2022-07-23T13:06:57;96606.94;;;31.44;33.60
71105;BME280;58760;48.716;8.962;2022-07-23T13:09:30;96611.13;;;31.82;32.63
71105;BME280;58760;48.716;8.962;2022-07-23T13:11:56;96602.31;;;32.35;32.01
71105;BME280;58760;48.716;8.962;2022-07-23T13:14:24;96599.94;;;32.42;31.72
71105;BME280;58760;48.716;8.962;2022-07-23T13:16:50;96600.13;;;32.09;32.00
71105;BME280;58760;48.716;8.962;2022-07-23T13:19:17;96599.34;;;31.54;33.32
71105;BME280;58760;48.716;8.962;2022-07-23T13:21:42;96618.06;;;31.80;32.38
71105;BME280;58760;48.716;8.962;2022-07-23T13:24:10;96616.00;;;31.58;33.97
71105;BME280;58760;48.716;8.962;2022-07-23T13:26:36;96610.78;;;32.25;32.46
71105;BME280;58760;48.716;8.962;2022-07-23T13:29:02;96615.09;;;32.39;31.64
71105;BME280;58760;48.716;8.962;2022-07-23T13:31:28;96604.69;;;32.86;31.42
71105;BME280;58760;48.716;8.962;2022-07-23T13:33:53;96615.06;;;32.03;32.62
71105;BME280;58760;48.716;8.962;2022-07-23T13:36:19;96612.06;;;30.86;34.05
71105;BME280;58760;48.716;8.962;2022-07-23T13:38:44;96613.13;;;30.34;35.11
71105;BME280;58760;48.716;8.962;2022-07-23T13:41:10;96623.41;;;29.62;36.17
71105;BME280;58760;48.716;8.962;2022-07-23T13:43:35;96626.22;;;29.23;36.65
71105;BME280;58760;48.716;8.962;2022-07-23T13:46:01;96620.31;;;29.16;37.12